Lake Elsinore, CA (92530)

8:16 AM PDT on August 21, 2014 (GMT -0700)
CA89 (Skylark Field) | Change Station
CLOSE
Current Station
Personal Weather Station
Location: Lake Elsinore, CA
Elevation: 1276 ft
Nearby Weather Stations

Elev 1276 ft 33.63 °N, 117.30 °W | Updated 1 minute ago

Clear
Clear
68.7 °F
Feels Like 68.7 °F
N
4.2
Wind Variable Wind from WNW

Today
High -- | Low -- °F
--% Chance of Precip.
Yesterday
High -- | Low -- °F
Precip. -- in
6:15 AM 7:28 PM
Waning Crescent, 14% visible
Pressure 29.97 in
Visibility 7.0 miles
Clouds Clear
Dew Point 63 °F
Humidity 83%
Rainfall 0.00 in
Snow Depth Not available.
UV 1 out of 12
Pollen 5.40 out of 12
PM2.5 Moderate
Flu Activity Not available.
METAR KF70 211455Z AUTO 00000KT 7SM CLR 19/16 A2997 RMK AO1

More Conditions Fewer Conditions

Pressure 29.97 in
Visibility 7.0 miles
Clouds Clear
Dew Point 63 °F
Humidity 83%
Rainfall 0.00 in
Snow Depth Not available.
UV 1 out of 12
Pollen 5.40 out of 12
PM2.5 Moderate
Flu Activity Not available.
METAR KF70 211455Z AUTO 00000KT 7SM CLR 19/16 A2997 RMK AO1

More Conditions Fewer Conditions

10-Day Weather Forecast

Almanac

Astronomy

Aug. 21, 2014 Rise Set
Actual Time 6:15 AM PDT 7:28 PM PDT
Civil Twilight 5:49 AM PDT 7:54 PM PDT
Nautical Twilight 5:18 AM PDT 8:25 PM PDT
Astronomical Twilight 4:46 AM PDT 8:57 PM PDT
Moon 2:54 AM PDT 4:56 PM PDT
Length of Visible Light 14h 04m
Length of Day
13h 12m
Tomorrow will be 1m 54s shorter.
Waning Crescent, 14% of the Moon is Illuminated
Today
Waning Crescent
Aug 25
New
Sep 2
First Quarter
Sep 8
Full
Sep 15
Last Quarter

Today's Extremes

State Highs State Lows

Community

WunderPhotos

Upload Photos

1,745,947 photos uploaded!

Nearby

Air Quality

  Air Quality AQ Index Pollutant
Yesterday Good
PM10
Yesterday Good
OZONE
Current Moderate
PM2.5
Thursday Good
PM10
Thursday Moderate
OZONE
Thursday Good
CO
Thursday Good
NO2

Snow Depth

Station Depth Elevation
Leavitt Lake 1 in 9400 ft
Leavitt Meadows 0 in 7200 ft
Summit Meadow 2 in 9122 ft
Monitor Pass 1 in 8350 ft
Blue Lakes 0 in 8000 ft

Earthquake Activity

City Distance Mag. Time & Date
Malibu Beach, California 82 miles 3.4 10:03 AM PDT
2014-08-15
Yucca Valley, California 66 miles 3.8 8:57 PM PDT
2014-08-14
Minimum magnitude displayed is 2.5.

Coastal Water Temperatures

Place Temperature
Santa Monica Pier 70.0 °F
Los Angeles, CA 68.0 °F
La Jolla, CA 71.1 °F

Nearby Weather Stations